createdAt,value
2019-02-22T00:00:42.227Z,99.90
2019-02-22T00:03:16.593Z,99.90
2019-02-22T00:05:51.563Z,99.90
2019-02-22T00:08:25.627Z,99.90
2019-02-22T00:10:59.577Z,99.90
2019-02-22T00:13:35.039Z,99.90
2019-02-22T00:16:08.853Z,99.90
2019-02-22T00:18:42.547Z,99.90
2019-02-22T00:21:17.346Z,99.90
2019-02-22T00:23:51.159Z,99.90
2019-02-22T00:26:25.391Z,99.90
2019-02-22T00:28:59.297Z,99.90
2019-02-22T00:31:33.418Z,99.90
2019-02-22T00:34:07.368Z,99.90
2019-02-22T00:36:41.664Z,99.90
2019-02-22T00:39:15.750Z,99.90
2019-02-22T00:41:49.472Z,99.90
2019-02-22T00:44:24.525Z,99.90
2019-02-22T00:46:58.340Z,99.90
2019-02-22T00:49:32.210Z,99.90
2019-02-22T00:52:06.216Z,99.90
2019-02-22T00:54:42.177Z,99.90
2019-02-22T00:57:16.551Z,99.90
2019-02-22T00:59:50.291Z,99.90
2019-02-22T01:02:24.563Z,99.90
2019-02-22T01:04:59.042Z,99.90
2019-02-22T01:07:33.050Z,99.90
2019-02-22T01:10:06.661Z,99.90
2019-02-22T01:12:39.365Z,99.90
2019-02-22T01:15:13.043Z,99.90
2019-02-22T01:17:47.093Z,99.90
2019-02-22T01:20:20.955Z,99.90
2019-02-22T01:22:55.421Z,99.90
2019-02-22T01:25:29.581Z,99.90
2019-02-22T01:28:03.574Z,99.90
2019-02-22T01:30:37.813Z,99.90
2019-02-22T01:33:11.386Z,99.90
2019-02-22T01:35:44.822Z,99.90
2019-02-22T01:38:20.667Z,99.90
2019-02-22T01:40:54.122Z,99.90
2019-02-22T01:43:27.898Z,99.90
2019-02-22T01:46:01.498Z,99.90
2019-02-22T01:48:35.725Z,99.90
2019-02-22T01:51:09.926Z,99.90
2019-02-22T01:53:44.375Z,99.90
2019-02-22T01:56:18.315Z,99.90
2019-02-22T01:58:53.605Z,99.90
2019-02-22T02:01:28.987Z,99.90
2019-02-22T02:04:04.211Z,99.90
2019-02-22T02:06:39.414Z,99.90
2019-02-22T02:09:14.790Z,99.90
2019-02-22T02:11:50.350Z,99.90
2019-02-22T02:14:24.510Z,99.90
2019-02-22T02:17:00.445Z,99.90
2019-02-22T02:19:36.123Z,99.90
2019-02-22T02:22:11.108Z,99.90
2019-02-22T02:24:45.791Z,99.90
2019-02-22T02:27:21.154Z,99.90
2019-02-22T02:29:56.192Z,99.90
2019-02-22T02:32:31.526Z,99.90
2019-02-22T02:35:07.198Z,99.90
2019-02-22T02:37:42.318Z,99.90
2019-02-22T02:40:16.827Z,99.90
2019-02-22T02:42:50.680Z,99.90
2019-02-22T02:45:26.097Z,99.90
2019-02-22T02:48:01.247Z,99.90
2019-02-22T02:50:36.059Z,99.90
2019-02-22T02:53:11.519Z,99.90
2019-02-22T02:55:47.609Z,99.90
2019-02-22T02:58:20.894Z,99.90
2019-02-22T03:00:55.697Z,99.90
2019-02-22T03:03:30.593Z,99.90
2019-02-22T03:06:10.639Z,99.90
2019-02-22T03:08:44.995Z,99.90
2019-02-22T03:11:21.083Z,99.90
2019-02-22T03:13:56.088Z,99.90
2019-02-22T03:16:30.406Z,99.90
2019-02-22T03:19:03.620Z,99.90
2019-02-22T03:21:39.143Z,99.90
2019-02-22T03:24:14.386Z,99.90
2019-02-22T03:26:48.622Z,99.90
2019-02-22T03:29:24.463Z,99.90
2019-02-22T03:31:59.613Z,99.90
2019-02-22T03:34:35.043Z,99.90
2019-02-22T03:37:10.389Z,99.90
2019-02-22T03:39:45.064Z,99.90
2019-02-22T03:42:19.579Z,99.90
2019-02-22T03:44:54.472Z,99.90
2019-02-22T03:47:29.875Z,99.90
2019-02-22T03:50:05.839Z,99.90
2019-02-22T03:52:48.356Z,99.90
2019-02-22T03:55:23.820Z,99.90
2019-02-22T03:57:58.570Z,99.90
2019-02-22T04:00:33.805Z,99.90
2019-02-22T04:03:10.332Z,99.90
2019-02-22T04:05:45.951Z,99.90
2019-02-22T04:08:21.196Z,99.90
2019-02-22T04:10:55.766Z,99.90
2019-02-22T04:13:30.819Z,99.90
2019-02-22T04:16:05.892Z,99.90
2019-02-22T04:18:40.784Z,99.90
2019-02-22T04:21:15.633Z,99.90
2019-02-22T04:23:51.015Z,99.90
2019-02-22T04:26:25.606Z,99.90
2019-02-22T04:29:02.089Z,99.90
2019-02-22T04:31:38.237Z,99.90
2019-02-22T04:34:14.038Z,99.90
2019-02-22T04:36:50.726Z,99.90
2019-02-22T04:39:25.834Z,99.90
2019-02-22T04:42:01.345Z,99.90
2019-02-22T04:44:35.792Z,99.90
2019-02-22T04:47:12.652Z,99.90
2019-02-22T04:49:50.132Z,99.90
2019-02-22T04:52:26.649Z,99.90
2019-02-22T04:55:03.745Z,99.90
2019-02-22T04:57:40.840Z,99.90
2019-02-22T05:00:17.449Z,99.90
2019-02-22T05:02:53.312Z,99.90
2019-02-22T05:05:29.919Z,99.90
2019-02-22T05:08:05.555Z,99.90
2019-02-22T05:10:40.123Z,99.90
2019-02-22T05:13:15.586Z,99.90
2019-02-22T05:15:52.163Z,99.90
2019-02-22T05:18:26.922Z,99.90
2019-02-22T05:21:01.402Z,99.90
2019-02-22T05:23:37.784Z,99.90
2019-02-22T05:26:14.565Z,99.90
2019-02-22T05:28:50.147Z,99.90
2019-02-22T05:31:25.854Z,99.90
2019-02-22T05:34:01.687Z,99.90
2019-02-22T05:36:36.852Z,99.90
2019-02-22T05:39:19.151Z,99.90
2019-02-22T05:41:49.935Z,99.90
2019-02-22T05:44:25.625Z,99.90
2019-02-22T05:47:00.797Z,99.90
2019-02-22T05:49:39.472Z,99.90
2019-02-22T05:52:14.657Z,99.90
2019-02-22T05:54:49.472Z,99.90
2019-02-22T05:57:24.693Z,99.90
2019-02-22T05:59:59.420Z,99.90
2019-02-22T06:02:35.577Z,99.90
2019-02-22T06:05:10.854Z,99.90
2019-02-22T06:07:45.831Z,99.90
2019-02-22T06:10:21.221Z,99.90
2019-02-22T06:12:56.123Z,99.90
2019-02-22T06:15:31.517Z,99.90
2019-02-22T06:18:07.974Z,99.90
2019-02-22T06:20:42.844Z,99.90
2019-02-22T06:23:18.878Z,99.90
2019-02-22T06:25:53.979Z,99.90
2019-02-22T06:28:29.053Z,99.90
2019-02-22T06:31:04.586Z,99.90
2019-02-22T06:33:40.136Z,99.90
2019-02-22T06:36:14.674Z,99.90
2019-02-22T06:38:49.813Z,99.90
2019-02-22T06:41:25.284Z,99.90
2019-02-22T06:44:01.358Z,99.90
2019-02-22T06:46:36.038Z,99.90
2019-02-22T06:49:10.209Z,99.90
2019-02-22T06:51:45.467Z,99.90
2019-02-22T06:54:22.318Z,99.90
2019-02-22T06:56:57.842Z,99.90
2019-02-22T06:59:32.027Z,99.90
2019-02-22T07:02:05.829Z,99.90
2019-02-22T07:04:40.593Z,99.90
2019-02-22T07:07:15.510Z,99.90
2019-02-22T07:09:49.031Z,99.90
2019-02-22T07:12:56.156Z,99.90
2019-02-22T07:15:18.128Z,99.90
2019-02-22T07:17:49.623Z,99.90
2019-02-22T07:20:20.913Z,99.90
2019-02-22T07:22:52.669Z,99.90
2019-02-22T07:25:24.631Z,99.90
2019-02-22T07:27:55.847Z,99.90
2019-02-22T07:30:27.628Z,99.90
2019-02-22T07:32:59.338Z,99.90
2019-02-22T07:35:32.761Z,99.90
2019-02-22T07:38:04.883Z,99.90
2019-02-22T07:40:37.272Z,99.90
2019-02-22T07:43:09.432Z,99.90
2019-02-22T07:45:41.628Z,99.90
2019-02-22T07:48:13.012Z,99.90
2019-02-22T07:50:56.314Z,99.90
2019-02-22T07:53:17.572Z,99.90
2019-02-22T07:55:48.638Z,99.90
2019-02-22T07:58:22.814Z,99.90
2019-02-22T08:00:54.744Z,99.90
2019-02-22T08:03:26.476Z,99.90
2019-02-22T08:05:58.107Z,99.90
2019-02-22T08:08:29.771Z,99.90
2019-02-22T08:11:01.740Z,99.90
2019-02-22T08:13:35.225Z,99.90
2019-02-22T08:16:07.473Z,99.90
2019-02-22T08:18:42.756Z,99.90
2019-02-22T08:21:15.011Z,99.90
2019-02-22T08:23:47.065Z,99.90
2019-02-22T08:26:19.859Z,99.90
2019-02-22T08:28:51.551Z,99.90
2019-02-22T08:31:23.189Z,99.90
2019-02-22T08:33:57.033Z,99.90
2019-02-22T08:36:27.424Z,99.90
2019-02-22T08:38:59.754Z,99.90
2019-02-22T08:41:31.326Z,99.90
2019-02-22T08:44:04.113Z,99.90
2019-02-22T08:46:35.874Z,99.90
2019-02-22T08:49:10.814Z,99.90
2019-02-22T08:51:43.394Z,99.90
2019-02-22T08:54:15.403Z,99.90
2019-02-22T08:56:47.864Z,99.90
2019-02-22T08:59:19.344Z,99.90
2019-02-22T09:01:52.616Z,99.90
2019-02-22T09:04:24.388Z,99.90
2019-02-22T09:06:57.302Z,99.90
2019-02-22T09:09:29.514Z,99.90
2019-02-22T09:12:01.430Z,99.90
2019-02-22T09:14:33.499Z,99.90
2019-02-22T09:17:05.735Z,99.90
2019-02-22T09:19:37.364Z,99.90
2019-02-22T09:22:10.123Z,99.90
2019-02-22T09:24:41.842Z,99.80
2019-02-22T09:27:13.594Z,99.00
2019-02-22T09:29:45.608Z,98.10
2019-02-22T09:32:17.707Z,97.40
2019-02-22T09:34:49.879Z,96.60
2019-02-22T09:37:21.227Z,97.30
2019-02-22T09:39:53.536Z,96.80
2019-02-22T09:42:25.269Z,96.50
2019-02-22T09:44:57.381Z,96.00
2019-02-22T09:47:29.720Z,95.50
2019-02-22T09:50:01.683Z,94.90
2019-02-22T09:52:34.216Z,94.00
2019-02-22T09:55:05.894Z,94.10
2019-02-22T09:57:38.653Z,94.40
2019-02-22T10:00:14.153Z,95.00
2019-02-22T10:02:46.177Z,95.60
2019-02-22T10:05:17.619Z,95.50
2019-02-22T10:07:49.193Z,95.10
2019-02-22T10:10:20.667Z,95.80
2019-02-22T10:12:52.316Z,97.00
2019-02-22T10:15:24.193Z,96.10
2019-02-22T10:17:55.676Z,96.10
2019-02-22T10:20:27.660Z,95.70
2019-02-22T10:22:59.657Z,94.50
2019-02-22T10:25:31.517Z,94.30
2019-02-22T10:28:03.365Z,93.50
2019-02-22T10:30:34.787Z,93.10
2019-02-22T10:33:06.989Z,92.10
2019-02-22T10:35:38.737Z,92.40
2019-02-22T10:38:15.080Z,91.50
2019-02-22T10:40:47.019Z,91.30
2019-02-22T10:43:18.388Z,90.70
2019-02-22T10:45:50.904Z,91.10
2019-02-22T10:48:22.507Z,90.70
2019-02-22T10:50:54.318Z,90.90
2019-02-22T10:53:25.866Z,90.60
2019-02-22T10:55:57.892Z,90.50
2019-02-22T10:58:29.062Z,91.00
2019-02-22T11:01:01.076Z,92.20
2019-02-22T11:03:34.169Z,91.30
2019-02-22T11:06:06.123Z,90.10
2019-02-22T11:08:37.197Z,89.50
2019-02-22T11:11:09.254Z,89.70
2019-02-22T11:13:40.687Z,89.90
2019-02-22T11:16:14.082Z,87.60
2019-02-22T11:18:45.706Z,85.20
2019-02-22T11:21:17.690Z,85.90
2019-02-22T11:23:49.155Z,86.40
2019-02-22T11:26:20.720Z,82.80
2019-02-22T11:28:53.088Z,84.10
2019-02-22T11:31:24.650Z,84.00
2019-02-22T11:33:56.987Z,84.50
2019-02-22T11:36:28.646Z,84.40
2019-02-22T11:39:00.831Z,85.00
2019-02-22T11:41:35.370Z,84.90
2019-02-22T11:44:07.096Z,85.50
2019-02-22T11:46:39.752Z,85.50
2019-02-22T11:49:11.824Z,85.70
2019-02-22T11:51:43.574Z,86.20
2019-02-22T11:54:18.435Z,85.10
2019-02-22T11:56:51.357Z,83.90
2019-02-22T11:59:23.210Z,83.90
2019-02-22T12:01:56.363Z,82.20
2019-02-22T12:04:29.986Z,83.10
2019-02-22T12:07:02.765Z,82.70
2019-02-22T12:09:35.423Z,81.90
2019-02-22T12:12:08.512Z,83.00
2019-02-22T12:14:50.866Z,84.30
2019-02-22T12:17:15.498Z,82.80
2019-02-22T12:19:47.483Z,81.70
2019-02-22T12:22:20.163Z,82.40
2019-02-22T12:24:51.613Z,81.60
2019-02-22T12:27:24.290Z,81.80
2019-02-22T12:29:55.932Z,78.90
2019-02-22T12:32:28.369Z,74.90
2019-02-22T12:35:00.468Z,73.20
2019-02-22T12:37:32.115Z,72.60
2019-02-22T12:40:08.351Z,73.90
2019-02-22T12:42:41.151Z,75.40
2019-02-22T12:45:13.338Z,76.10
2019-02-22T12:47:47.018Z,77.10
2019-02-22T12:50:19.537Z,78.10
2019-02-22T12:52:51.140Z,78.30
2019-02-22T12:55:23.848Z,79.30
2019-02-22T12:57:55.539Z,79.40
2019-02-22T13:00:27.057Z,79.60
2019-02-22T13:03:01.937Z,74.90
2019-02-22T13:05:31.967Z,72.00
2019-02-22T13:08:03.437Z,71.80
2019-02-22T13:10:35.003Z,70.30
2019-02-22T13:13:08.405Z,71.30
2019-02-22T13:15:39.078Z,73.00
2019-02-22T13:18:09.736Z,74.30
2019-02-22T13:20:40.402Z,74.90
2019-02-22T13:23:11.160Z,75.30
2019-02-22T13:25:41.683Z,75.00
2019-02-22T13:28:12.384Z,76.10
2019-02-22T13:30:44.164Z,76.10
2019-02-22T13:33:15.720Z,77.00
2019-02-22T13:35:46.325Z,77.00
2019-02-22T13:38:16.947Z,78.10
2019-02-22T13:40:49.296Z,77.70
2019-02-22T13:43:21.662Z,78.30
2019-02-22T13:45:54.327Z,79.60
2019-02-22T13:48:25.125Z,78.70
2019-02-22T13:50:57.158Z,78.90
2019-02-22T13:53:28.009Z,79.60
2019-02-22T13:55:59.778Z,79.80
2019-02-22T13:58:30.554Z,78.80
2019-02-22T14:01:01.728Z,78.40
2019-02-22T14:03:33.093Z,78.70
2019-02-22T14:06:04.017Z,77.80
2019-02-22T14:08:34.741Z,77.30
2019-02-22T14:11:05.621Z,77.00
2019-02-22T14:13:36.575Z,77.80
2019-02-22T14:16:11.177Z,77.80
2019-02-22T14:18:44.482Z,78.20
2019-02-22T14:21:15.313Z,78.40
2019-02-22T14:23:46.509Z,78.60
2019-02-22T14:26:17.235Z,77.90
2019-02-22T14:28:48.066Z,78.70
2019-02-22T14:31:18.645Z,78.80
2019-02-22T14:33:49.745Z,77.70
2019-02-22T14:36:20.678Z,77.70
2019-02-22T14:38:51.666Z,78.30
2019-02-22T14:41:24.373Z,78.10
2019-02-22T14:43:55.095Z,77.50
2019-02-22T14:46:26.798Z,77.50
2019-02-22T14:49:04.773Z,77.30
2019-02-22T14:51:37.275Z,77.60
2019-02-22T14:54:15.938Z,77.70
2019-02-22T14:56:48.149Z,77.20
2019-02-22T14:59:18.789Z,78.10
2019-02-22T15:01:49.546Z,78.40
2019-02-22T15:04:21.283Z,78.10
2019-02-22T15:06:52.573Z,77.40
2019-02-22T15:09:23.195Z,77.10
2019-02-22T15:11:57.506Z,77.40
2019-02-22T15:14:30.693Z,77.40
2019-02-22T15:17:38.328Z,76.80
2019-02-22T15:20:11.444Z,76.60
2019-02-22T15:22:43.633Z,74.30
2019-02-22T15:25:16.546Z,74.50
2019-02-22T15:27:49.556Z,73.80
2019-02-22T15:30:21.935Z,73.40
2019-02-22T15:32:54.551Z,73.50
2019-02-22T15:35:27.499Z,73.50
2019-02-22T15:38:00.884Z,74.20
2019-02-22T15:40:36.171Z,74.90
2019-02-22T15:43:10.102Z,75.40
2019-02-22T15:45:43.777Z,76.50
2019-02-22T15:48:17.922Z,77.60
2019-02-22T15:50:50.945Z,78.40
2019-02-22T15:53:23.531Z,79.00
2019-02-22T15:55:56.153Z,80.00
2019-02-22T15:58:29.647Z,80.60
2019-02-22T16:01:01.759Z,81.30
2019-02-22T16:04:13.005Z,81.70
2019-02-22T16:06:47.140Z,82.10
2019-02-22T16:09:21.973Z,82.40
2019-02-22T16:11:56.543Z,82.90
2019-02-22T16:14:32.134Z,82.90
2019-02-22T16:17:05.295Z,83.10
2019-02-22T16:19:41.297Z,83.30
2019-02-22T16:22:15.628Z,83.00
2019-02-22T16:24:48.589Z,82.80
2019-02-22T16:27:20.863Z,82.70
2019-02-22T16:29:56.203Z,82.60
2019-02-22T16:32:30.877Z,82.70
2019-02-22T16:35:03.569Z,82.90
2019-02-22T16:37:38.241Z,82.90
2019-02-22T16:40:15.622Z,83.20
2019-02-22T16:42:50.164Z,83.20
2019-02-22T16:45:22.771Z,83.30
2019-02-22T16:47:55.031Z,83.70
2019-02-22T16:50:29.770Z,83.90
2019-02-22T16:53:02.319Z,84.00
2019-02-22T16:55:35.726Z,84.00
2019-02-22T16:58:08.381Z,84.50
2019-02-22T17:00:41.448Z,85.00
2019-02-22T17:03:14.636Z,85.40
2019-02-22T17:05:47.166Z,85.70
2019-02-22T17:08:20.733Z,86.20
2019-02-22T17:10:52.533Z,86.20
2019-02-22T17:13:24.940Z,86.50
2019-02-22T17:15:57.978Z,86.70
2019-02-22T17:18:30.253Z,86.80
2019-02-22T17:21:03.781Z,87.00
2019-02-22T17:23:36.535Z,87.10
2019-02-22T17:26:13.389Z,87.50
2019-02-22T17:28:46.084Z,87.40
2019-02-22T17:31:19.349Z,87.50
2019-02-22T17:33:52.315Z,87.00
2019-02-22T17:36:27.149Z,87.20
2019-02-22T17:38:59.985Z,87.30
2019-02-22T17:41:32.600Z,87.20
2019-02-22T17:44:05.114Z,87.10
2019-02-22T17:46:38.740Z,86.70
2019-02-22T17:49:13.556Z,86.60
2019-02-22T17:51:45.949Z,86.50
2019-02-22T17:54:18.420Z,86.80
2019-02-22T17:56:50.643Z,87.00
2019-02-22T17:59:23.335Z,86.70
2019-02-22T18:01:56.010Z,86.60
2019-02-22T18:04:29.128Z,87.10
2019-02-22T18:07:06.709Z,87.10
2019-02-22T18:09:39.215Z,87.50
2019-02-22T18:12:11.740Z,87.70
2019-02-22T18:14:44.713Z,87.90
2019-02-22T18:17:16.892Z,87.80
2019-02-22T18:19:52.143Z,88.00
2019-02-22T18:22:26.123Z,88.30
2019-02-22T18:25:02.297Z,88.70
2019-02-22T18:27:35.346Z,89.20
2019-02-22T18:30:09.897Z,89.50
2019-02-22T18:32:45.624Z,89.80
2019-02-22T18:35:19.329Z,89.90
2019-02-22T18:37:57.107Z,90.30
2019-02-22T18:40:30.771Z,90.70
2019-02-22T18:43:03.609Z,90.80
2019-02-22T18:45:37.843Z,91.00
2019-02-22T18:48:13.515Z,91.20
2019-02-22T18:50:46.649Z,91.10
2019-02-22T18:53:19.494Z,91.10
2019-02-22T18:55:52.234Z,91.40
2019-02-22T18:58:25.550Z,91.80
2019-02-22T19:01:00.422Z,92.70
2019-02-22T19:03:33.154Z,93.00
2019-02-22T19:06:05.619Z,93.50
2019-02-22T19:08:40.205Z,94.00
2019-02-22T19:11:12.917Z,94.70
2019-02-22T19:13:47.138Z,95.10
2019-02-22T19:16:20.608Z,95.30
2019-02-22T19:18:53.812Z,95.50
2019-02-22T19:21:27.859Z,96.00
2019-02-22T19:24:01.831Z,95.80
2019-02-22T19:26:35.688Z,95.50
2019-02-22T19:29:09.236Z,95.60
2019-02-22T19:31:41.838Z,95.60
2019-02-22T19:34:26.691Z,95.70
2019-02-22T19:36:59.305Z,95.60
2019-02-22T19:39:33.153Z,95.90
2019-02-22T19:42:09.436Z,95.90
2019-02-22T19:44:43.096Z,96.00
2019-02-22T19:47:18.704Z,96.20
2019-02-22T19:49:52.533Z,96.90
2019-02-22T19:52:26.310Z,97.20
2019-02-22T19:54:59.363Z,97.90
2019-02-22T19:57:35.154Z,98.50
2019-02-22T20:00:10.808Z,98.90
2019-02-22T20:02:44.860Z,98.40
2019-02-22T20:05:20.767Z,98.40
2019-02-22T20:07:56.355Z,98.50
2019-02-22T20:10:34.540Z,98.90
2019-02-22T20:13:09.759Z,98.70
2019-02-22T20:15:46.044Z,98.90
2019-02-22T20:18:21.068Z,99.20
2019-02-22T20:20:55.772Z,99.30
2019-02-22T20:23:30.942Z,99.10
2019-02-22T20:26:05.553Z,99.60
2019-02-22T20:28:44.171Z,99.90
2019-02-22T20:31:20.489Z,99.90
2019-02-22T20:34:02.194Z,99.90
2019-02-22T20:36:37.076Z,99.90
2019-02-22T20:39:13.244Z,99.90
2019-02-22T20:41:49.148Z,99.90
2019-02-22T20:44:26.071Z,99.90
2019-02-22T20:47:00.504Z,99.90
2019-02-22T20:49:37.225Z,99.90
2019-02-22T20:52:14.477Z,99.90
2019-02-22T20:54:48.318Z,99.90
2019-02-22T20:57:24.779Z,99.90
2019-02-22T21:00:06.330Z,99.90
2019-02-22T21:02:42.589Z,99.90
2019-02-22T21:05:18.435Z,99.90
2019-02-22T21:07:54.763Z,99.90
2019-02-22T21:10:33.380Z,99.90
2019-02-22T21:13:12.368Z,99.90
2019-02-22T21:15:48.246Z,99.90
2019-02-22T21:18:23.659Z,99.90
2019-02-22T21:20:58.672Z,99.90
2019-02-22T21:23:36.167Z,99.90
2019-02-22T21:26:10.798Z,99.90
2019-02-22T21:28:45.119Z,99.90
2019-02-22T21:31:20.284Z,99.90
2019-02-22T21:33:56.001Z,99.90
2019-02-22T21:36:30.334Z,99.90
2019-02-22T21:39:05.719Z,99.90
2019-02-22T21:41:40.972Z,99.90
2019-02-22T21:44:14.856Z,99.90
2019-02-22T21:46:49.222Z,99.90
2019-02-22T21:49:23.825Z,99.90
2019-02-22T21:51:59.969Z,99.90
2019-02-22T21:54:37.765Z,99.90
2019-02-22T21:57:12.448Z,99.90
2019-02-22T21:59:46.810Z,99.90
2019-02-22T22:02:21.810Z,99.90
2019-02-22T22:04:56.259Z,99.90
2019-02-22T22:07:30.816Z,99.90
2019-02-22T22:10:05.504Z,99.90
2019-02-22T22:12:40.279Z,99.90
2019-02-22T22:15:14.711Z,99.90
2019-02-22T22:17:49.401Z,99.90
2019-02-22T22:20:22.923Z,99.90
2019-02-22T22:22:58.316Z,99.90
2019-02-22T22:25:32.449Z,99.90
2019-02-22T22:28:06.596Z,99.90
2019-02-22T22:30:40.527Z,99.90
2019-02-22T22:33:18.879Z,99.90
2019-02-22T22:35:54.796Z,99.90
2019-02-22T22:38:29.061Z,99.90
2019-02-22T22:41:03.396Z,99.90
2019-02-22T22:43:37.927Z,99.90
2019-02-22T22:46:12.930Z,99.90
2019-02-22T22:48:50.454Z,99.90
2019-02-22T22:51:22.951Z,99.90
2019-02-22T22:53:58.869Z,99.90
2019-02-22T22:56:35.222Z,99.90
2019-02-22T22:59:11.260Z,99.90
2019-02-22T23:01:45.935Z,99.90
2019-02-22T23:04:19.836Z,99.90
2019-02-22T23:06:54.562Z,99.90
2019-02-22T23:09:29.311Z,99.90
2019-02-22T23:12:03.772Z,99.90
2019-02-22T23:14:39.236Z,99.90
2019-02-22T23:17:13.349Z,99.90
2019-02-22T23:19:47.983Z,99.90
2019-02-22T23:22:23.971Z,99.90
2019-02-22T23:24:59.451Z,99.90
2019-02-22T23:27:34.147Z,99.90
2019-02-22T23:30:09.104Z,99.90
2019-02-22T23:32:43.630Z,99.90
2019-02-22T23:35:21.278Z,99.90
2019-02-22T23:37:56.347Z,99.90
2019-02-22T23:40:33.125Z,99.90
2019-02-22T23:43:09.403Z,99.90
2019-02-22T23:45:44.689Z,99.90
2019-02-22T23:48:18.279Z,99.90
2019-02-22T23:50:52.831Z,99.90
2019-02-22T23:53:26.847Z,99.90
2019-02-22T23:56:00.993Z,99.90
2019-02-22T23:58:34.620Z,99.90
